Pagrindinis puslapis
METAR-TAF:

METAR-TAF

Oro uostai :

Sent Etjenas, Prancūzija

platuma: 45-32N, ilguma: 004-18E, Aukštis: 404 m

Dabartinis oras

Ataskaita buvo paskelbta 19 minutes, ne 23:30 UTC
Vėjas 5 kt iš Šiaurės/Šiaurės Vakarų
Temperatūra 1°C
Drėgmė 75%
Slėgis 1019 hPa
Matomumas 10 km arba daugiau
Mažai debesys ne aukštis 4300 ft

METAR: LFMH 302330Z AUTO 34005KT 9999 FEW043 01/M03 Q1019

Laikas: 01:49 (23:49 UTC)


TAF: trūkstamas

Orai ataskaitas ir orų prognozės (METAR, TAF).

turimą stotys yra geltonos ir raudonos taškus žemėlapyje.

Perkelti pele per norėdami pamatyti stoties vardą.

Tada spustelėkite, norėdami matyti oro stebėjimo ir prognozės.

Norėdami pakeisti žemėlapį: spustelėkite ant žalios mygtukų su juodo kryžiaus žemyn,; žalią mygtuką su brūkšneliu, jei norite nutolinti; arba žalių rodyklių gretimoms žemėlapius.


METAR-TAF: